Terminal Aerodrome Forecast
Issued by NWS Louisville, KY

Home | Current Version | Previous Version | Text Only | Print | Product List | Glossary On
Versions: 1 2 3 4 5 6 7 8 9 10 11 12 13 14 15 16 17
000
FTUS43 KLMK 180523
TAFLEX
TAF
KLEX 180523Z 1806/1906 00000KT P6SM SKC
     FM181000 00000KT 4SM BR FEW250
      TEMPO 1811/1813 1SM BR
     FM181300 22004KT P6SM SCT050=

USA.gov is the U.S. government's official web portal to all federal, state and local government web resources and services.